Terminal Aerodrome Forecast
Issued by NWS Sterling, VA

Current Version | Previous Version | Text Only | Print | Product List | Glossary Off
Versions: 1 2 3 4 5 6 7 8 9 10 11 12 13 14 15 16 17 18 19 20 21 22

000
FTUS41 KLWX 231134
TAFIAD
TAF
KIAD 231134Z 2312/2418 16003KT P6SM BKN080
     FM231400 29011KT P6SM SCT070
     FM231700 29015G24KT P6SM BKN060
     FM240000 31009KT P6SM BKN060
     FM241400 30015G23KT P6SM FEW250=

USA.gov is the U.S. government's official web portal to all federal, state and local government web resources and services.